createdAt,value
2023-09-27T00:01:23.702Z,100.00
2023-09-27T00:03:53.553Z,100.00
2023-09-27T00:06:19.936Z,100.00
2023-09-27T00:08:46.378Z,100.00
2023-09-27T00:11:15.334Z,100.00
2023-09-27T00:13:47.752Z,100.00
2023-09-27T00:16:16.614Z,100.00
2023-09-27T00:18:45.599Z,100.00
2023-09-27T00:21:13.706Z,100.00
2023-09-27T00:23:43.622Z,100.00
2023-09-27T00:26:27.805Z,100.00
2023-09-27T00:28:54.546Z,100.00
2023-09-27T00:31:23.629Z,100.00
2023-09-27T00:33:52.988Z,100.00
2023-09-27T00:36:19.352Z,100.00
2023-09-27T00:38:50.973Z,100.00
2023-09-27T00:41:22.035Z,100.00
2023-09-27T00:43:50.966Z,100.00
2023-09-27T00:46:18.212Z,100.00
2023-09-27T00:48:49.590Z,100.00
2023-09-27T00:51:16.369Z,100.00
2023-09-27T00:53:47.630Z,100.00
2023-09-27T00:56:19.384Z,100.00
2023-09-27T00:58:49.548Z,100.00
2023-09-27T01:01:16.858Z,100.00
2023-09-27T01:03:43.392Z,100.00
2023-09-27T01:06:12.571Z,100.00
2023-09-27T01:08:42.954Z,100.00
2023-09-27T01:11:09.350Z,100.00
2023-09-27T01:13:37.724Z,100.00
2023-09-27T01:16:06.598Z,100.00
2023-09-27T01:18:35.471Z,100.00
2023-09-27T01:21:11.786Z,100.00
2023-09-27T01:23:40.974Z,100.00
2023-09-27T01:26:12.172Z,100.00
2023-09-27T01:28:42.854Z,100.00
2023-09-27T01:31:09.270Z,100.00
2023-09-27T01:33:41.083Z,100.00
2023-09-27T01:36:09.718Z,100.00
2023-09-27T01:38:39.184Z,100.00
2023-09-27T01:41:05.595Z,100.00
2023-09-27T01:43:37.074Z,100.00
2023-09-27T01:46:07.337Z,100.00
2023-09-27T01:48:35.692Z,100.00
2023-09-27T01:51:03.204Z,100.00
2023-09-27T01:53:33.757Z,100.00
2023-09-27T01:56:00.253Z,100.00
2023-09-27T01:58:32.935Z,100.00
2023-09-27T02:00:59.344Z,100.00
2023-09-27T02:03:30.484Z,100.00
2023-09-27T02:05:58.709Z,100.00
2023-09-27T02:08:25.151Z,100.00
2023-09-27T02:10:54.029Z,100.00
2023-09-27T02:13:24.070Z,100.00
2023-09-27T02:15:50.516Z,100.00
2023-09-27T02:18:17.044Z,100.00
2023-09-27T02:20:44.251Z,100.00
2023-09-27T02:23:16.815Z,100.00
2023-09-27T02:26:01.208Z,100.00
2023-09-27T02:28:27.581Z,100.00
2023-09-27T02:30:57.107Z,100.00
2023-09-27T02:33:25.718Z,100.00
2023-09-27T02:35:52.120Z,100.00
2023-09-27T02:38:18.586Z,100.00
2023-09-27T02:40:45.038Z,100.00
2023-09-27T02:43:12.632Z,100.00
2023-09-27T02:45:42.757Z,100.00
2023-09-27T02:48:12.048Z,100.00
2023-09-27T02:50:40.954Z,100.00
2023-09-27T02:53:07.321Z,100.00
2023-09-27T02:55:34.602Z,100.00
2023-09-27T02:58:06.149Z,100.00
2023-09-27T03:00:42.015Z,100.00
2023-09-27T03:03:08.474Z,100.00
2023-09-27T03:05:36.091Z,100.00
2023-09-27T03:08:11.614Z,100.00
2023-09-27T03:10:39.502Z,100.00
2023-09-27T03:13:16.311Z,100.00
2023-09-27T03:15:57.095Z,100.00
2023-09-27T03:18:25.648Z,100.00
2023-09-27T03:20:52.024Z,100.00
2023-09-27T03:23:26.103Z,100.00
2023-09-27T03:25:56.203Z,100.00
2023-09-27T03:28:25.147Z,100.00
2023-09-27T03:30:55.169Z,100.00
2023-09-27T03:33:21.618Z,100.00
2023-09-27T03:35:48.188Z,100.00
2023-09-27T03:38:14.658Z,100.00
2023-09-27T03:40:41.436Z,100.00
2023-09-27T03:43:11.257Z,100.00
2023-09-27T03:45:39.448Z,100.00
2023-09-27T03:48:08.420Z,100.00
2023-09-27T03:50:37.421Z,100.00
2023-09-27T03:53:05.593Z,100.00
2023-09-27T03:55:32.157Z,100.00
2023-09-27T03:57:58.588Z,100.00
2023-09-27T04:00:27.042Z,100.00
2023-09-27T04:02:53.970Z,100.00
2023-09-27T04:05:27.086Z,100.00
2023-09-27T04:07:56.614Z,100.00
2023-09-27T04:10:23.149Z,100.00
2023-09-27T04:13:01.827Z,100.00
2023-09-27T04:15:32.766Z,100.00
2023-09-27T04:18:01.350Z,100.00
2023-09-27T04:20:28.080Z,100.00
2023-09-27T04:22:54.867Z,100.00
2023-09-27T04:25:26.589Z,100.00
2023-09-27T04:27:52.941Z,100.00
2023-09-27T04:30:20.031Z,100.00
2023-09-27T04:32:53.776Z,100.00
2023-09-27T04:35:24.799Z,100.00
2023-09-27T04:37:54.836Z,100.00
2023-09-27T04:40:23.482Z,100.00
2023-09-27T04:42:52.883Z,100.00
2023-09-27T04:45:21.984Z,100.00
2023-09-27T04:47:48.523Z,100.00
2023-09-27T04:50:23.469Z,100.00
2023-09-27T04:52:49.952Z,100.00
2023-09-27T04:55:18.950Z,100.00
2023-09-27T04:57:46.755Z,100.00
2023-09-27T05:00:22.078Z,100.00
2023-09-27T05:02:54.310Z,100.00
2023-09-27T05:05:22.836Z,100.00
2023-09-27T05:07:49.511Z,100.00
2023-09-27T05:10:17.388Z,100.00
2023-09-27T05:13:12.628Z,100.00
2023-09-27T05:15:39.104Z,100.00
2023-09-27T05:18:08.061Z,100.00
2023-09-27T05:20:37.667Z,100.00
2023-09-27T05:23:04.432Z,100.00
2023-09-27T05:25:38.167Z,100.00
2023-09-27T05:28:07.899Z,100.00
2023-09-27T05:30:34.385Z,100.00
2023-09-27T05:33:08.371Z,100.00
2023-09-27T05:35:38.024Z,100.00
2023-09-27T05:38:06.788Z,100.00
2023-09-27T05:40:35.743Z,100.00
2023-09-27T05:43:04.600Z,100.00
2023-09-27T05:45:31.041Z,100.00
2023-09-27T05:48:01.982Z,100.00
2023-09-27T05:50:36.963Z,100.00
2023-09-27T05:53:03.675Z,100.00
2023-09-27T05:55:33.192Z,100.00
2023-09-27T05:57:59.798Z,100.00
2023-09-27T06:00:37.675Z,100.00
2023-09-27T06:03:07.853Z,100.00
2023-09-27T06:05:34.408Z,100.00
2023-09-27T06:08:03.774Z,100.00
2023-09-27T06:10:32.026Z,100.00
2023-09-27T06:12:58.375Z,100.00
2023-09-27T06:15:37.709Z,100.00
2023-09-27T06:18:06.889Z,100.00
2023-09-27T06:20:42.866Z,100.00
2023-09-27T06:23:13.967Z,100.00
2023-09-27T06:25:42.669Z,100.00
2023-09-27T06:28:09.193Z,100.00
2023-09-27T06:30:41.020Z,100.00
2023-09-27T06:33:08.301Z,100.00
2023-09-27T06:35:37.096Z,100.00
2023-09-27T06:38:04.120Z,100.00
2023-09-27T06:40:30.801Z,100.00
2023-09-27T06:43:00.400Z,100.00
2023-09-27T06:45:28.917Z,100.00
2023-09-27T06:47:58.256Z,100.00
2023-09-27T06:50:29.274Z,100.00
2023-09-27T06:53:03.594Z,100.00
2023-09-27T06:55:48.209Z,100.00
2023-09-27T06:58:18.387Z,100.00
2023-09-27T07:00:44.805Z,100.00
2023-09-27T07:03:12.639Z,100.00
2023-09-27T07:05:39.169Z,100.00
2023-09-27T07:08:06.755Z,100.00
2023-09-27T07:10:33.284Z,100.00
2023-09-27T07:12:59.709Z,100.00
2023-09-27T07:15:26.066Z,100.00
2023-09-27T07:17:52.635Z,100.00
2023-09-27T07:20:21.838Z,100.00
2023-09-27T07:22:51.478Z,100.00
2023-09-27T07:25:17.978Z,100.00
2023-09-27T07:27:45.624Z,100.00
2023-09-27T07:30:12.464Z,100.00
2023-09-27T07:32:39.502Z,100.00
2023-09-27T07:35:17.980Z,100.00
2023-09-27T07:37:45.107Z,100.00
2023-09-27T07:40:14.822Z,100.00
2023-09-27T07:42:51.513Z,100.00
2023-09-27T07:45:19.482Z,100.00
2023-09-27T07:47:53.143Z,98.75
2023-09-27T07:50:29.477Z,96.72
2023-09-27T07:52:59.030Z,96.41
2023-09-27T07:55:28.635Z,97.49
2023-09-27T07:58:00.552Z,98.60
2023-09-27T08:00:31.878Z,97.62
2023-09-27T08:02:58.536Z,97.58
2023-09-27T08:05:26.932Z,97.92
2023-09-27T08:07:56.223Z,95.46
2023-09-27T08:10:24.473Z,93.35
2023-09-27T08:12:51.203Z,90.71
2023-09-27T08:15:17.999Z,89.78
2023-09-27T08:17:45.779Z,89.99
2023-09-27T08:20:15.278Z,88.70
2023-09-27T08:22:42.046Z,86.79
2023-09-27T08:25:11.917Z,86.20
2023-09-27T08:27:40.715Z,85.34
2023-09-27T08:30:09.953Z,85.38
2023-09-27T08:32:36.545Z,86.28
2023-09-27T08:35:06.241Z,83.75
2023-09-27T08:37:38.241Z,83.58
2023-09-27T08:40:07.913Z,81.66
2023-09-27T08:42:34.628Z,80.20
2023-09-27T08:45:14.856Z,80.13
2023-09-27T08:47:46.039Z,79.59
2023-09-27T08:50:13.742Z,79.00
2023-09-27T08:52:44.972Z,78.38
2023-09-27T08:55:11.385Z,78.24
2023-09-27T08:57:40.080Z,80.29
2023-09-27T09:00:09.424Z,80.59
2023-09-27T09:02:40.165Z,81.57
2023-09-27T09:05:07.210Z,81.15
2023-09-27T09:07:33.905Z,81.09
2023-09-27T09:10:03.404Z,79.72
2023-09-27T09:12:30.596Z,81.77
2023-09-27T09:15:00.218Z,83.34
2023-09-27T09:17:37.974Z,84.08
2023-09-27T09:20:09.018Z,83.85
2023-09-27T09:22:42.984Z,85.42
2023-09-27T09:25:09.463Z,86.46
2023-09-27T09:27:35.944Z,84.57
2023-09-27T09:30:05.706Z,83.00
2023-09-27T09:32:32.179Z,83.84
2023-09-27T09:34:58.784Z,85.37
2023-09-27T09:37:27.045Z,83.87
2023-09-27T09:39:55.388Z,84.96
2023-09-27T09:42:31.343Z,84.13
2023-09-27T09:45:04.394Z,82.58
2023-09-27T09:47:30.893Z,82.76
2023-09-27T09:49:59.904Z,83.93
2023-09-27T09:52:31.892Z,84.70
2023-09-27T09:55:10.784Z,83.71
2023-09-27T09:57:54.209Z,83.51
2023-09-27T10:00:25.031Z,81.98
2023-09-27T10:02:56.919Z,81.72
2023-09-27T10:05:23.821Z,82.44
2023-09-27T10:07:56.208Z,82.56
2023-09-27T10:10:24.428Z,81.80
2023-09-27T10:12:54.096Z,81.52
2023-09-27T10:15:22.806Z,82.04
2023-09-27T10:17:49.625Z,80.77
2023-09-27T10:20:17.970Z,82.11
2023-09-27T10:22:46.183Z,80.77
2023-09-27T10:25:24.488Z,81.69
2023-09-27T10:27:59.949Z,79.60
2023-09-27T10:30:27.310Z,79.44
2023-09-27T10:33:17.024Z,76.97
2023-09-27T10:36:12.281Z,75.43
2023-09-27T10:39:02.116Z,73.58
2023-09-27T10:41:37.496Z,73.64
2023-09-27T10:44:04.279Z,70.95
2023-09-27T10:46:47.401Z,70.58
2023-09-27T10:49:22.666Z,70.08
2023-09-27T10:51:53.577Z,69.06
2023-09-27T10:54:29.216Z,70.49
2023-09-27T10:56:59.728Z,72.08
2023-09-27T10:59:27.278Z,70.77
2023-09-27T11:01:56.858Z,70.85
2023-09-27T11:04:27.926Z,71.38
2023-09-27T11:06:57.833Z,73.05
2023-09-27T11:09:24.243Z,72.92
2023-09-27T11:11:52.466Z,71.17
2023-09-27T11:14:37.595Z,71.18
2023-09-27T11:17:18.118Z,68.54
2023-09-27T11:19:46.841Z,66.50
2023-09-27T11:22:24.556Z,63.06
2023-09-27T11:24:52.245Z,61.08
2023-09-27T11:27:24.234Z,57.08
2023-09-27T11:29:56.550Z,56.79
2023-09-27T11:32:24.616Z,56.15
2023-09-27T11:34:57.169Z,54.79
2023-09-27T11:37:24.748Z,55.38
2023-09-27T11:39:54.558Z,57.29
2023-09-27T11:42:26.461Z,56.61
2023-09-27T11:45:10.064Z,55.63
2023-09-27T11:47:49.851Z,55.53
2023-09-27T11:50:21.099Z,56.20
2023-09-27T11:52:48.227Z,53.93
2023-09-27T11:55:22.626Z,52.50
2023-09-27T11:57:50.592Z,51.65
2023-09-27T12:00:19.647Z,49.96
2023-09-27T12:02:57.214Z,49.65
2023-09-27T12:05:28.084Z,50.97
2023-09-27T12:07:55.729Z,47.40
2023-09-27T12:10:26.433Z,47.83
2023-09-27T12:12:52.791Z,48.10
2023-09-27T12:15:19.149Z,46.98
2023-09-27T12:17:45.652Z,47.91
2023-09-27T12:20:22.369Z,45.68
2023-09-27T12:22:54.315Z,45.70
2023-09-27T12:25:20.725Z,47.88
2023-09-27T12:27:49.455Z,48.12
2023-09-27T12:30:16.130Z,47.71
2023-09-27T12:32:42.648Z,48.46
2023-09-27T12:35:14.469Z,47.66
2023-09-27T12:37:40.897Z,46.37
2023-09-27T12:40:09.114Z,45.46
2023-09-27T12:42:35.578Z,45.58
2023-09-27T12:45:02.128Z,45.04
2023-09-27T12:47:28.796Z,45.22
2023-09-27T12:49:55.250Z,44.99
2023-09-27T12:52:21.620Z,44.99
2023-09-27T12:54:51.616Z,45.01
2023-09-27T12:57:18.980Z,44.13
2023-09-27T12:59:54.318Z,42.96
2023-09-27T13:02:22.050Z,41.33
2023-09-27T13:04:48.503Z,43.58
2023-09-27T13:07:15.699Z,43.05
2023-09-27T13:09:50.628Z,41.76
2023-09-27T13:12:17.112Z,42.54
2023-09-27T13:14:43.518Z,42.51
2023-09-27T13:17:12.931Z,42.88
2023-09-27T13:19:39.496Z,42.68
2023-09-27T13:22:17.093Z,43.70
2023-09-27T13:24:50.223Z,44.52
2023-09-27T13:27:25.548Z,45.00
2023-09-27T13:29:52.031Z,44.31
2023-09-27T13:32:21.186Z,46.01
2023-09-27T13:34:48.068Z,46.66
2023-09-27T13:37:17.095Z,46.62
2023-09-27T13:39:43.453Z,46.19
2023-09-27T13:42:09.872Z,47.49
2023-09-27T13:44:42.288Z,49.56
2023-09-27T13:47:12.650Z,51.53
2023-09-27T13:49:55.961Z,53.48
2023-09-27T13:52:22.436Z,53.49
2023-09-27T13:54:56.537Z,55.50
2023-09-27T13:57:24.375Z,55.48
2023-09-27T13:59:53.768Z,55.23
2023-09-27T14:02:20.222Z,54.39
2023-09-27T14:04:49.037Z,53.65
2023-09-27T14:07:20.268Z,53.96
2023-09-27T14:09:46.885Z,54.30
2023-09-27T14:12:23.194Z,53.87
2023-09-27T14:14:54.576Z,54.03
2023-09-27T14:17:22.928Z,51.41
2023-09-27T14:19:49.346Z,49.70
2023-09-27T14:22:16.173Z,48.81
2023-09-27T14:24:45.932Z,50.28
2023-09-27T14:27:13.438Z,53.72
2023-09-27T14:29:44.970Z,55.12
2023-09-27T14:32:20.205Z,55.91
2023-09-27T14:34:58.056Z,56.78
2023-09-27T14:37:27.677Z,57.74
2023-09-27T14:39:55.909Z,57.63
2023-09-27T14:42:27.264Z,58.60
2023-09-27T14:44:54.954Z,59.70
2023-09-27T14:47:22.420Z,59.61
2023-09-27T14:49:53.722Z,59.71
2023-09-27T14:52:30.237Z,59.94
2023-09-27T14:55:00.814Z,60.94
2023-09-27T14:57:37.588Z,60.24
2023-09-27T15:00:04.361Z,61.95
2023-09-27T15:02:33.292Z,62.21
2023-09-27T15:04:59.834Z,62.14
2023-09-27T15:07:26.302Z,63.13
2023-09-27T15:09:52.984Z,63.44
2023-09-27T15:12:19.350Z,63.12
2023-09-27T15:14:45.768Z,64.38
2023-09-27T15:17:13.262Z,63.93
2023-09-27T15:19:39.864Z,64.33
2023-09-27T15:22:06.338Z,64.21
2023-09-27T15:24:32.736Z,63.98
2023-09-27T15:26:59.195Z,64.04
2023-09-27T15:29:26.926Z,64.13
2023-09-27T15:31:56.125Z,64.71
2023-09-27T15:34:22.635Z,64.21
2023-09-27T15:36:49.393Z,64.05
2023-09-27T15:39:16.036Z,64.91
2023-09-27T15:41:42.519Z,64.92
2023-09-27T15:44:10.890Z,65.86
2023-09-27T15:46:42.127Z,66.10
2023-09-27T15:49:11.455Z,66.84
2023-09-27T15:51:39.116Z,66.93
2023-09-27T15:54:18.413Z,67.47
2023-09-27T15:56:45.544Z,67.25
2023-09-27T15:59:14.910Z,67.94
2023-09-27T16:01:43.852Z,67.64
2023-09-27T16:04:13.305Z,68.05
2023-09-27T16:06:39.787Z,68.25
2023-09-27T16:09:11.900Z,68.52
2023-09-27T16:11:42.991Z,67.98
2023-09-27T16:14:13.172Z,68.21
2023-09-27T16:16:39.850Z,68.56
2023-09-27T16:19:18.115Z,68.73
2023-09-27T16:21:45.735Z,68.54
2023-09-27T16:24:14.839Z,68.59
2023-09-27T16:26:48.040Z,69.41
2023-09-27T16:29:16.477Z,70.13
2023-09-27T16:31:48.727Z,69.88
2023-09-27T16:34:45.947Z,70.00
2023-09-27T16:37:11.347Z,69.43
2023-09-27T16:39:40.738Z,69.46
2023-09-27T16:42:07.173Z,70.06
2023-09-27T16:44:36.427Z,70.24
2023-09-27T16:47:06.298Z,70.70
2023-09-27T16:49:35.590Z,70.84
2023-09-27T16:52:02.041Z,71.70
2023-09-27T16:54:28.669Z,72.35
2023-09-27T16:56:57.299Z,73.03
2023-09-27T16:59:39.038Z,72.95
2023-09-27T17:02:05.697Z,74.18
2023-09-27T17:04:37.454Z,74.36
2023-09-27T17:07:06.317Z,74.39
2023-09-27T17:09:38.161Z,75.04
2023-09-27T17:12:05.643Z,74.96
2023-09-27T17:14:32.134Z,75.11
2023-09-27T17:16:59.647Z,75.92
2023-09-27T17:19:29.577Z,75.85
2023-09-27T17:21:58.445Z,76.28
2023-09-27T17:24:33.860Z,75.95
2023-09-27T17:27:09.930Z,76.11
2023-09-27T17:29:36.335Z,76.86
2023-09-27T17:32:06.586Z,77.09
2023-09-27T17:34:36.991Z,77.34
2023-09-27T17:37:03.574Z,77.82
2023-09-27T17:39:31.093Z,78.12
2023-09-27T17:42:07.615Z,78.11
2023-09-27T17:44:38.473Z,78.48
2023-09-27T17:47:09.667Z,78.97
2023-09-27T17:49:36.178Z,78.76
2023-09-27T17:52:05.090Z,79.29
2023-09-27T17:54:39.790Z,78.88
2023-09-27T17:57:08.822Z,79.16
2023-09-27T17:59:42.877Z,78.76
2023-09-27T18:02:09.780Z,79.28
2023-09-27T18:04:36.246Z,78.69
2023-09-27T18:07:03.958Z,78.67
2023-09-27T18:09:30.383Z,78.98
2023-09-27T18:11:56.812Z,79.12
2023-09-27T18:14:23.251Z,79.52
2023-09-27T18:16:49.711Z,79.22
2023-09-27T18:19:19.366Z,79.74
2023-09-27T18:21:45.820Z,79.17
2023-09-27T18:24:12.784Z,79.51
2023-09-27T18:26:41.773Z,80.08
2023-09-27T18:29:11.267Z,80.26
2023-09-27T18:31:40.373Z,80.01
2023-09-27T18:34:08.156Z,80.22
2023-09-27T18:36:36.042Z,80.34
2023-09-27T18:39:08.901Z,79.92
2023-09-27T18:41:44.248Z,80.94
2023-09-27T18:44:14.613Z,80.89
2023-09-27T18:46:43.335Z,80.98
2023-09-27T18:49:14.353Z,80.80
2023-09-27T18:51:46.118Z,81.50
2023-09-27T18:54:15.105Z,81.47
2023-09-27T18:56:47.281Z,81.66
2023-09-27T18:59:14.980Z,81.89
2023-09-27T19:01:41.504Z,81.57
2023-09-27T19:04:13.578Z,81.94
2023-09-27T19:06:40.145Z,81.29
2023-09-27T19:09:06.627Z,81.79
2023-09-27T19:11:34.758Z,81.03
2023-09-27T19:14:03.148Z,81.22
2023-09-27T19:16:33.194Z,81.46
2023-09-27T19:19:05.029Z,80.95
2023-09-27T19:21:31.497Z,81.61
2023-09-27T19:23:57.967Z,81.54
2023-09-27T19:26:25.625Z,81.35
2023-09-27T19:28:54.316Z,82.76
2023-09-27T19:31:21.030Z,81.41
2023-09-27T19:33:51.207Z,81.30
2023-09-27T19:36:26.338Z,82.47
2023-09-27T19:38:53.978Z,82.17
2023-09-27T19:41:33.119Z,81.98
2023-09-27T19:43:59.608Z,80.79
2023-09-27T19:46:30.840Z,80.60
2023-09-27T19:48:57.278Z,80.81
2023-09-27T19:51:26.356Z,80.94
2023-09-27T19:53:54.141Z,80.87
2023-09-27T19:56:21.688Z,80.96
2023-09-27T19:58:53.617Z,81.38
2023-09-27T20:01:32.833Z,81.13
2023-09-27T20:04:02.110Z,81.43
2023-09-27T20:06:37.397Z,81.84
2023-09-27T20:09:07.861Z,81.86
2023-09-27T20:11:40.847Z,82.01
2023-09-27T20:14:12.693Z,82.21
2023-09-27T20:16:42.842Z,82.63
2023-09-27T20:19:09.158Z,82.59
2023-09-27T20:21:41.785Z,83.11
2023-09-27T20:24:08.412Z,83.46
2023-09-27T20:26:36.321Z,83.49
2023-09-27T20:29:02.847Z,83.95
2023-09-27T20:31:33.705Z,84.20
2023-09-27T20:34:13.174Z,83.74
2023-09-27T20:36:39.695Z,84.13
2023-09-27T20:39:08.747Z,85.24
2023-09-27T20:41:38.071Z,85.15
2023-09-27T20:44:04.899Z,85.01
2023-09-27T20:46:31.408Z,85.40
2023-09-27T20:48:59.024Z,85.38
2023-09-27T20:51:28.229Z,84.90
2023-09-27T20:53:55.112Z,85.10
2023-09-27T20:56:21.790Z,84.50
2023-09-27T20:58:50.702Z,84.43
2023-09-27T21:01:31.578Z,85.04
2023-09-27T21:04:01.512Z,85.15
2023-09-27T21:06:29.181Z,85.01
2023-09-27T21:09:07.554Z,84.53
2023-09-27T21:11:34.104Z,83.41
2023-09-27T21:14:02.082Z,82.24
2023-09-27T21:16:36.780Z,79.39
2023-09-27T21:19:11.008Z,78.03
2023-09-27T21:21:37.427Z,77.26
2023-09-27T21:24:06.343Z,77.71
2023-09-27T21:26:32.792Z,77.46
2023-09-27T21:28:59.293Z,76.97
2023-09-27T21:31:27.888Z,77.15
2023-09-27T21:33:54.510Z,77.57
2023-09-27T21:36:21.147Z,77.39
2023-09-27T21:38:48.712Z,77.40
2023-09-27T21:41:17.785Z,77.90
2023-09-27T21:43:44.216Z,78.06
2023-09-27T21:46:25.549Z,78.29
2023-09-27T21:48:57.065Z,78.44
2023-09-27T21:51:23.916Z,78.37
2023-09-27T21:54:01.680Z,78.29
2023-09-27T21:56:29.393Z,78.26
2023-09-27T21:58:58.642Z,78.17
2023-09-27T22:01:25.288Z,78.48
2023-09-27T22:03:54.389Z,78.44
2023-09-27T22:06:25.205Z,78.51
2023-09-27T22:08:51.602Z,78.09
2023-09-27T22:11:20.524Z,78.50
2023-09-27T22:13:46.956Z,78.09
2023-09-27T22:16:22.208Z,78.32
2023-09-27T22:18:53.822Z,78.40
2023-09-27T22:21:26.332Z,78.62
2023-09-27T22:23:52.928Z,78.39
2023-09-27T22:26:19.498Z,78.43
2023-09-27T22:28:47.145Z,78.41
2023-09-27T22:31:17.329Z,78.37
2023-09-27T22:33:44.709Z,78.23
2023-09-27T22:36:16.060Z,77.93
2023-09-27T22:38:52.832Z,77.98
2023-09-27T22:41:19.356Z,77.81
2023-09-27T22:43:48.914Z,77.67
2023-09-27T22:46:16.194Z,78.18
2023-09-27T22:48:46.065Z,78.85
2023-09-27T22:51:12.538Z,78.76
2023-09-27T22:53:45.383Z,79.03
2023-09-27T22:56:11.871Z,79.38
2023-09-27T22:58:38.332Z,79.41
2023-09-27T23:01:13.176Z,79.35
2023-09-27T23:03:40.950Z,79.68
2023-09-27T23:06:07.436Z,79.63
2023-09-27T23:08:38.070Z,79.32
2023-09-27T23:11:07.905Z,79.80
2023-09-27T23:13:34.448Z,79.74
2023-09-27T23:16:05.171Z,80.10
2023-09-27T23:18:32.958Z,79.78
2023-09-27T23:21:03.978Z,79.38
2023-09-27T23:23:33.071Z,79.99
2023-09-27T23:26:01.925Z,79.97
2023-09-27T23:28:28.556Z,79.99
2023-09-27T23:31:00.262Z,79.93
2023-09-27T23:33:29.399Z,80.22
2023-09-27T23:35:55.925Z,80.25
2023-09-27T23:38:25.572Z,80.06
2023-09-27T23:40:52.124Z,79.91
2023-09-27T23:43:32.699Z,79.43
2023-09-27T23:45:59.172Z,79.90
2023-09-27T23:48:25.629Z,80.19
2023-09-27T23:50:52.008Z,80.34
2023-09-27T23:53:28.774Z,80.41
2023-09-27T23:56:09.810Z,80.83
2023-09-27T23:58:38.703Z,80.96
